Engis, Belgium
Current Conditions -  °F | °C
As of 2:20 AM on Thursday 23 Oct 2014 (Local Time) from EBLG Reporting Station
Clear Clear  
Wind Chill: 42°   Ceiling: Unl
Heat Index: 46°   Visibility: 6mi
Dew Point: 43°   Wind: 9mph
Humidity: 87%   Direction: 250°WSW
Pressure: 30.24"   Gusts: NA
Location:  50.58°N, 5.4°E
Report Text: EBLG 230020Z 25008KT 9000 NSC 08/06 Q1024 NOSIG
Loading
Personal Weather Stations






























Interactive Weather Map
Tropical Storm Tracking
New forecast layout! Learn more

10-Day Weather Forecast

Advertisements
Track Severe Weather on mobile